createdAt,value
2022-08-25T00:00:13.238Z,99117.63
2022-08-25T00:03:30.738Z,99114.14
2022-08-25T00:06:50.507Z,99110.61
2022-08-25T00:10:06.873Z,99115.26
2022-08-25T00:13:23.178Z,99119.19
2022-08-25T00:16:41.454Z,99124.80
2022-08-25T00:19:57.674Z,99119.90
2022-08-25T00:23:13.883Z,99117.75
2022-08-25T00:26:30.887Z,99118.80
2022-08-25T00:29:47.107Z,99119.47
2022-08-25T00:36:19.501Z,99120.97
2022-08-25T00:39:35.903Z,99113.95
2022-08-25T00:42:52.118Z,99116.27
2022-08-25T00:46:08.463Z,99112.78
2022-08-25T00:49:29.635Z,99103.08
2022-08-25T00:52:50.868Z,99102.47
2022-08-25T00:56:07.731Z,99106.43
2022-08-25T00:59:25.530Z,99108.31
2022-08-25T01:02:41.961Z,99117.41
2022-08-25T01:06:00.172Z,99114.49
2022-08-25T01:09:17.308Z,99120.91
2022-08-25T01:12:33.712Z,99121.59
2022-08-25T01:15:50.411Z,99120.99
2022-08-25T01:22:23.062Z,99114.07
2022-08-25T01:25:47.822Z,99108.33
2022-08-25T01:29:19.958Z,99105.17
2022-08-25T01:35:52.421Z,99106.25
2022-08-25T01:39:09.533Z,99090.14
2022-08-25T01:42:46.591Z,99093.63
2022-08-25T01:46:03.171Z,99089.16
2022-08-25T01:49:19.917Z,99089.83
2022-08-25T01:52:40.020Z,99086.10
2022-08-25T01:56:01.267Z,99087.14
2022-08-25T01:59:24.283Z,99081.86
2022-08-25T02:02:42.472Z,99081.86
2022-08-25T02:05:58.887Z,99083.37
2022-08-25T02:09:19.532Z,99071.80
2022-08-25T02:12:37.621Z,99065.84
2022-08-25T02:15:57.964Z,99077.02
2022-08-25T02:19:17.320Z,99070.66
2022-08-25T02:22:34.132Z,99069.42
2022-08-25T02:25:51.379Z,99065.67
2022-08-25T02:29:08.291Z,99062.41
2022-08-25T02:32:24.435Z,99062.79
2022-08-25T02:35:40.646Z,99064.41
2022-08-25T02:38:57.403Z,99062.19
2022-08-25T02:42:14.386Z,99065.91
2022-08-25T02:45:31.021Z,99068.44
2022-08-25T02:48:48.057Z,99058.52
2022-08-25T02:52:04.132Z,99065.99
2022-08-25T02:55:22.034Z,99065.39
2022-08-25T02:58:38.148Z,99061.66
2022-08-25T03:08:26.628Z,99062.94
2022-08-25T03:11:43.263Z,99060.48
2022-08-25T03:14:59.423Z,99062.09
2022-08-25T03:18:17.066Z,99060.65
2022-08-25T03:21:34.364Z,99056.78
2022-08-25T03:24:50.508Z,99048.13
2022-08-25T03:28:07.331Z,99048.96
2022-08-25T03:31:23.374Z,99056.55
2022-08-25T03:35:38.557Z,99052.91
2022-08-25T03:38:54.841Z,99057.02
2022-08-25T03:42:13.493Z,99052.91
2022-08-25T03:45:30.544Z,99060.13
2022-08-25T03:48:46.910Z,99051.27
2022-08-25T03:52:03.910Z,99051.50
2022-08-25T03:55:22.888Z,99044.48
2022-08-25T03:58:38.971Z,99046.34
2022-08-25T04:01:56.643Z,99039.36
2022-08-25T04:05:14.035Z,99042.19
2022-08-25T04:08:32.321Z,99036.97
2022-08-25T04:11:49.292Z,99041.29
2022-08-25T04:15:06.884Z,99041.70
2022-08-25T04:18:23.556Z,99046.84
2022-08-25T04:21:40.165Z,99050.93
2022-08-25T04:24:56.504Z,99044.06
2022-08-25T04:28:12.769Z,99046.98
2022-08-25T04:31:30.080Z,99058.70
2022-08-25T04:34:46.702Z,99052.63
2022-08-25T04:38:03.456Z,99053.61
2022-08-25T04:41:25.138Z,99052.34
2022-08-25T04:44:42.634Z,99046.30
2022-08-25T04:48:00.913Z,99048.28
2022-08-25T04:51:20.879Z,99057.55
2022-08-25T04:54:37.459Z,99050.67
2022-08-25T04:57:54.049Z,99047.08
2022-08-25T05:01:16.393Z,99047.22
2022-08-25T05:04:32.755Z,99046.91
2022-08-25T05:07:49.014Z,99045.16
2022-08-25T05:11:05.466Z,99040.76
2022-08-25T05:14:26.715Z,99049.31
2022-08-25T05:17:42.035Z,99037.17
2022-08-25T05:20:59.438Z,99045.59
2022-08-25T05:24:16.121Z,99044.94
2022-08-25T05:27:33.155Z,99044.63
2022-08-25T05:30:50.935Z,99035.16
2022-08-25T05:34:09.580Z,99037.52
2022-08-25T05:37:25.902Z,99037.75
2022-08-25T05:40:42.711Z,99045.48
2022-08-25T05:43:59.762Z,99046.76
2022-08-25T05:47:16.472Z,99045.02
2022-08-25T05:50:32.879Z,99038.70
2022-08-25T05:53:51.981Z,99049.44
2022-08-25T05:57:08.301Z,99052.83
2022-08-25T06:00:25.617Z,99054.23
2022-08-25T06:03:41.847Z,99048.39
2022-08-25T06:06:58.146Z,99048.84
2022-08-25T06:10:17.065Z,99051.03
2022-08-25T06:13:30.926Z,99050.58
2022-08-25T06:22:27.533Z,99047.31
2022-08-25T06:25:43.881Z,99045.83
2022-08-25T06:29:00.584Z,99059.88
2022-08-25T06:35:32.386Z,99070.80
2022-08-25T06:38:50.666Z,99069.96
2022-08-25T06:42:18.523Z,99071.44
2022-08-25T06:45:34.637Z,99075.30
2022-08-25T06:48:51.350Z,99080.08
2022-08-25T06:52:07.869Z,99082.78
2022-08-25T06:55:25.467Z,99084.19
2022-08-25T06:58:42.220Z,99076.00
2022-08-25T07:08:30.716Z,99080.80
2022-08-25T07:11:47.854Z,99066.81
2022-08-25T07:15:19.545Z,99079.13
2022-08-25T07:18:23.069Z,99082.80
2022-08-25T07:21:42.958Z,99079.70
2022-08-25T07:25:01.020Z,99078.16
2022-08-25T07:28:17.399Z,99089.63
2022-08-25T07:31:33.795Z,99088.09
2022-08-25T07:35:04.067Z,99093.80
2022-08-25T07:38:20.927Z,99096.00
2022-08-25T07:41:37.383Z,99091.88
2022-08-25T07:44:54.228Z,99100.24
2022-08-25T07:48:14.841Z,99107.36
2022-08-25T07:51:32.913Z,99109.63
2022-08-25T07:54:49.244Z,99105.22
2022-08-25T07:58:07.096Z,99107.09
2022-08-25T08:01:22.821Z,99105.44
2022-08-25T08:04:49.525Z,99107.90
2022-08-25T08:08:07.883Z,99104.05
2022-08-25T08:11:28.746Z,99106.69
2022-08-25T08:14:46.202Z,99107.43
2022-08-25T08:18:03.111Z,99105.77
2022-08-25T08:21:24.838Z,99105.79
2022-08-25T08:24:53.969Z,99121.99
2022-08-25T08:28:01.400Z,99110.98
2022-08-25T08:31:20.000Z,99115.27
2022-08-25T08:37:54.039Z,99110.48
2022-08-25T08:42:07.241Z,99103.73
2022-08-25T08:45:35.485Z,99106.28
2022-08-25T08:49:06.457Z,99101.52
2022-08-25T08:52:25.443Z,99105.61
2022-08-25T08:55:52.519Z,99093.20
2022-08-25T08:59:10.299Z,99102.41
2022-08-25T09:02:39.300Z,99094.67
2022-08-25T09:05:58.558Z,99101.59
2022-08-25T09:09:20.153Z,99096.69
2022-08-25T09:12:48.089Z,99088.91
2022-08-25T09:16:22.386Z,99096.67
2022-08-25T09:20:18.152Z,99094.78
2022-08-25T09:23:34.158Z,99094.58
2022-08-25T09:26:57.673Z,99090.56
2022-08-25T09:30:17.227Z,99084.95
2022-08-25T09:33:38.312Z,99086.03
2022-08-25T09:36:55.168Z,99075.33
2022-08-25T09:40:15.752Z,99074.42
2022-08-25T09:43:40.385Z,99067.53
2022-08-25T09:47:12.904Z,99069.34
2022-08-25T09:50:29.748Z,99078.83
2022-08-25T09:53:49.541Z,99076.48
2022-08-25T09:57:09.284Z,99070.15
2022-08-25T10:00:32.647Z,99065.22
2022-08-25T10:04:18.871Z,99047.82
2022-08-25T10:07:36.378Z,99043.29
2022-08-25T10:11:00.277Z,99045.02
2022-08-25T10:14:30.395Z,99044.13
2022-08-25T10:21:21.500Z,99045.17
2022-08-25T10:24:38.049Z,99046.59
2022-08-25T10:28:02.083Z,99040.02
2022-08-25T10:31:25.042Z,99035.36
2022-08-25T10:34:58.917Z,99035.36
2022-08-25T10:38:22.420Z,99024.42
2022-08-25T10:41:56.175Z,99021.00
2022-08-25T10:45:41.398Z,99019.86
2022-08-25T10:49:14.462Z,99020.77
2022-08-25T10:52:41.726Z,99018.44
2022-08-25T10:56:10.063Z,99009.05
2022-08-25T10:59:48.767Z,99005.31
2022-08-25T11:03:26.844Z,99007.93
2022-08-25T11:06:52.633Z,99002.09
2022-08-25T11:10:13.385Z,99000.15
2022-08-25T11:13:37.539Z,98991.64
2022-08-25T11:16:59.246Z,98994.38
2022-08-25T11:20:26.888Z,98992.28
2022-08-25T11:23:45.998Z,98989.22
2022-08-25T11:27:05.887Z,98989.10
2022-08-25T11:30:25.927Z,98974.23
2022-08-25T11:37:06.550Z,98975.08
2022-08-25T11:40:50.157Z,98964.96
2022-08-25T11:44:15.945Z,98966.95
2022-08-25T11:51:04.791Z,98951.77
2022-08-25T11:54:32.868Z,98960.56
2022-08-25T11:57:54.040Z,98955.55
2022-08-25T12:01:12.305Z,98948.70
2022-08-25T12:04:45.696Z,98944.92
2022-08-25T12:08:30.061Z,98946.59
2022-08-25T12:12:02.385Z,98935.98
2022-08-25T12:15:32.286Z,98943.44
2022-08-25T12:22:19.675Z,98938.77
2022-08-25T12:25:55.639Z,98929.55
2022-08-25T12:29:17.534Z,98922.50
2022-08-25T12:33:00.912Z,98918.88
2022-08-25T12:36:21.307Z,98921.10
2022-08-25T12:39:45.638Z,98913.16
2022-08-25T12:43:12.415Z,98903.36
2022-08-25T12:46:48.394Z,98901.28
2022-08-25T12:50:33.509Z,98909.75
2022-08-25T12:53:54.270Z,98902.08
2022-08-25T12:57:15.346Z,98905.86
2022-08-25T13:00:37.785Z,98893.98
2022-08-25T13:07:24.475Z,98901.28
2022-08-25T13:10:55.485Z,98894.20
2022-08-25T13:14:18.592Z,98884.94
2022-08-25T13:22:57.204Z,98882.21
2022-08-25T13:26:12.511Z,98875.97
2022-08-25T13:29:36.904Z,98876.77
2022-08-25T13:36:23.492Z,98881.05
2022-08-25T13:39:56.388Z,98880.74
2022-08-25T13:43:04.181Z,98887.52
2022-08-25T13:46:20.805Z,98875.52
2022-08-25T13:52:58.547Z,98877.75
2022-08-25T13:59:40.271Z,98884.30
2022-08-25T14:02:59.211Z,98876.13
2022-08-25T14:06:19.661Z,98874.50
2022-08-25T14:09:44.258Z,98866.02
2022-08-25T14:13:14.285Z,98866.33
2022-08-25T14:16:34.110Z,98861.67
2022-08-25T14:19:56.108Z,98862.77
2022-08-25T14:23:18.841Z,98864.40
2022-08-25T14:26:35.279Z,98851.88
2022-08-25T14:29:52.972Z,98850.78
2022-08-25T14:33:11.480Z,98849.68
2022-08-25T14:36:28.296Z,98840.71
2022-08-25T14:39:46.027Z,98844.23
2022-08-25T14:43:03.119Z,98844.53
2022-08-25T14:46:23.844Z,98838.26
2022-08-25T14:49:44.810Z,98849.16
2022-08-25T14:53:01.038Z,98841.81
2022-08-25T14:56:17.931Z,98842.61
2022-08-25T14:59:36.391Z,98831.22
2022-08-25T15:02:57.102Z,98831.48
2022-08-25T15:06:14.265Z,98828.27
2022-08-25T15:09:33.569Z,98828.54
2022-08-25T15:12:53.929Z,98828.05
2022-08-25T15:16:07.473Z,98819.34
2022-08-25T15:19:27.799Z,98825.40
2022-08-25T15:22:46.201Z,98827.82
2022-08-25T15:26:05.329Z,98835.46
2022-08-25T15:29:23.119Z,98831.94
2022-08-25T15:32:39.469Z,98826.80
2022-08-25T15:39:13.256Z,98828.20
2022-08-25T15:42:31.639Z,98824.64
2022-08-25T15:45:48.403Z,98828.77
2022-08-25T15:49:07.850Z,98824.11
2022-08-25T15:52:28.261Z,98815.45
2022-08-25T15:55:45.657Z,98813.30
2022-08-25T15:59:03.645Z,98810.58
2022-08-25T16:02:20.012Z,98808.95
2022-08-25T16:05:37.262Z,98806.53
2022-08-25T16:08:54.572Z,98808.45
2022-08-25T16:12:11.642Z,98804.11
2022-08-25T16:15:29.786Z,98809.82
2022-08-25T16:22:04.197Z,98806.88
2022-08-25T16:25:22.636Z,98805.77
2022-08-25T16:28:39.668Z,98799.00
2022-08-25T16:31:59.510Z,98801.50
2022-08-25T16:38:33.043Z,98804.48
2022-08-25T16:41:49.563Z,98801.56
2022-08-25T16:45:07.880Z,98798.02
2022-08-25T16:51:40.449Z,98802.50
2022-08-25T16:55:16.405Z,98805.06
2022-08-25T16:58:33.580Z,98809.80
2022-08-25T17:01:50.806Z,98817.00
2022-08-25T17:05:07.298Z,98808.66
2022-08-25T17:08:35.683Z,98813.17
2022-08-25T17:11:51.068Z,98805.44
2022-08-25T17:15:07.344Z,98793.38
2022-08-25T17:21:45.088Z,98795.53
2022-08-25T17:25:01.831Z,98799.70
2022-08-25T17:28:20.440Z,98800.03
2022-08-25T17:31:40.000Z,98799.84
2022-08-25T17:34:56.478Z,98795.56
2022-08-25T17:38:12.969Z,98806.22
2022-08-25T17:41:29.415Z,98799.72
2022-08-25T17:44:45.957Z,98801.14
2022-08-25T17:48:02.376Z,98798.72
2022-08-25T17:51:19.046Z,98795.78
2022-08-25T17:54:35.231Z,98794.43
2022-08-25T17:57:52.670Z,98796.90
2022-08-25T18:01:09.513Z,98790.39
2022-08-25T18:04:27.232Z,98786.61
2022-08-25T18:07:44.141Z,98800.97
2022-08-25T18:11:00.855Z,98798.27
2022-08-25T18:14:23.318Z,98788.23
2022-08-25T18:23:17.167Z,98790.39
2022-08-25T18:26:33.479Z,98790.09
2022-08-25T18:29:51.534Z,98790.88
2022-08-25T18:33:08.176Z,98797.64
2022-08-25T18:36:25.645Z,98801.42
2022-08-25T18:39:56.838Z,98800.86
2022-08-25T18:43:17.199Z,98799.50
2022-08-25T18:46:34.867Z,98797.33
2022-08-25T18:49:53.507Z,98795.92
2022-08-25T18:53:17.129Z,98789.41
2022-08-25T18:56:33.870Z,98787.22
2022-08-25T18:59:50.641Z,98786.14
2022-08-25T19:03:09.377Z,98797.70
2022-08-25T19:06:26.456Z,98792.27
2022-08-25T19:12:56.894Z,98789.79
2022-08-25T19:16:22.861Z,98783.53
2022-08-25T19:19:39.674Z,98786.22
2022-08-25T19:22:56.646Z,98781.30
2022-08-25T19:26:17.883Z,98777.20
2022-08-25T19:29:34.971Z,98779.10
2022-08-25T19:32:53.383Z,98782.02
2022-08-25T19:36:08.747Z,98788.48
2022-08-25T19:39:26.961Z,98777.66
2022-08-25T19:42:43.455Z,98784.09
2022-08-25T19:46:00.721Z,98782.20
2022-08-25T19:52:35.633Z,98779.07
2022-08-25T19:55:52.325Z,98782.80
2022-08-25T19:59:09.713Z,98788.44
2022-08-25T20:02:30.361Z,98784.86
2022-08-25T20:05:47.428Z,98780.30
2022-08-25T20:09:05.183Z,98793.23
2022-08-25T20:12:21.664Z,98788.05
2022-08-25T20:15:39.176Z,98790.41
2022-08-25T20:18:55.703Z,98790.32
2022-08-25T20:22:12.083Z,98789.18
2022-08-25T20:25:36.969Z,98789.70
2022-08-25T20:28:51.316Z,98791.27
2022-08-25T20:32:08.220Z,98794.75
2022-08-25T20:38:42.059Z,98793.73
2022-08-25T20:41:59.115Z,98791.53
2022-08-25T20:45:18.734Z,98793.16
2022-08-25T20:48:35.598Z,98795.55
2022-08-25T20:51:52.237Z,98780.89
2022-08-25T20:55:08.817Z,98788.67
2022-08-25T20:58:26.521Z,98796.50
2022-08-25T21:01:43.751Z,98787.92
2022-08-25T21:05:01.324Z,98795.70
2022-08-25T21:08:18.404Z,98789.73
2022-08-25T21:11:34.531Z,98788.93
2022-08-25T21:14:52.242Z,98794.27
2022-08-25T21:18:09.278Z,98789.56
2022-08-25T21:24:43.522Z,98789.79
2022-08-25T21:28:00.957Z,98793.58
2022-08-25T21:31:22.197Z,98790.98
2022-08-25T21:34:46.246Z,98783.03
2022-08-25T21:38:03.961Z,98795.10
2022-08-25T21:41:24.071Z,98780.02
2022-08-25T21:44:40.400Z,98786.47
2022-08-25T21:47:56.795Z,98788.04
2022-08-25T21:51:20.674Z,98787.14
2022-08-25T21:54:39.445Z,98782.97
2022-08-25T21:57:56.276Z,98777.26
2022-08-25T22:01:19.140Z,98770.97
2022-08-25T22:04:36.705Z,98783.89
2022-08-25T22:07:53.050Z,98779.81
2022-08-25T22:11:10.658Z,98771.63
2022-08-25T22:14:28.407Z,98780.15
2022-08-25T22:17:45.297Z,98772.80
2022-08-25T22:24:19.964Z,98780.00
2022-08-25T22:27:39.990Z,98775.09
2022-08-25T22:30:58.217Z,98773.20
2022-08-25T22:34:14.512Z,98770.68
2022-08-25T22:37:31.223Z,98763.25
2022-08-25T22:40:50.684Z,98778.27
2022-08-25T22:44:07.873Z,98759.18
2022-08-25T22:47:23.990Z,98771.84
2022-08-25T22:50:45.218Z,98768.73
2022-08-25T22:54:04.445Z,98770.03
2022-08-25T22:57:21.561Z,98759.16
2022-08-25T23:00:37.747Z,98753.48
2022-08-25T23:03:54.815Z,98760.46
2022-08-25T23:07:12.231Z,98749.37
2022-08-25T23:10:29.153Z,98753.03
2022-08-25T23:13:46.620Z,98749.34
2022-08-25T23:17:02.724Z,98746.56
2022-08-25T23:20:35.522Z,98754.13
2022-08-25T23:23:52.317Z,98748.41
2022-08-25T23:27:10.824Z,98743.03
2022-08-25T23:30:27.645Z,98739.92
2022-08-25T23:33:46.399Z,98746.13
2022-08-25T23:37:03.358Z,98739.92
2022-08-25T23:40:21.509Z,98742.61
2022-08-25T23:43:38.941Z,98745.39
2022-08-25T23:46:56.738Z,98742.27
2022-08-25T23:50:12.687Z,98738.60
2022-08-25T23:53:29.168Z,98736.04
2022-08-25T23:56:52.059Z,98739.78
